sensor_id;sensor_type;location;lat;lon;timestamp;temperature;humidity
22503;DHT22;11418;48.118;9.992;2023-02-04T00:02:59;4.60;99.90
22503;DHT22;11418;48.118;9.992;2023-02-04T00:07:00;4.60;99.90
22503;DHT22;11418;48.118;9.992;2023-02-04T00:11:00;4.60;99.90
22503;DHT22;11418;48.118;9.992;2023-02-04T00:15:01;4.50;99.90
22503;DHT22;11418;48.118;9.992;2023-02-04T00:19:01;4.60;99.90
22503;DHT22;11418;48.118;9.992;2023-02-04T00:23:02;4.70;99.90
22503;DHT22;11418;48.118;9.992;2023-02-04T00:27:04;4.60;99.90
22503;DHT22;11418;48.118;9.992;2023-02-04T00:31:05;4.60;99.90
22503;DHT22;11418;48.118;9.992;2023-02-04T00:35:05;4.60;99.90
22503;DHT22;11418;48.118;9.992;2023-02-04T00:39:06;4.50;99.90
22503;DHT22;11418;48.118;9.992;2023-02-04T00:43:07;4.60;99.90
22503;DHT22;11418;48.118;9.992;2023-02-04T00:47:07;4.60;99.90
22503;DHT22;11418;48.118;9.992;2023-02-04T00:51:08;4.50;99.90
22503;DHT22;11418;48.118;9.992;2023-02-04T00:55:08;4.50;99.90
22503;DHT22;11418;48.118;9.992;2023-02-04T00:59:11;4.50;99.90
22503;DHT22;11418;48.118;9.992;2023-02-04T01:03:11;4.40;99.90
22503;DHT22;11418;48.118;9.992;2023-02-04T01:07:12;4.50;99.90
22503;DHT22;11418;48.118;9.992;2023-02-04T01:11:12;4.60;99.90
22503;DHT22;11418;48.118;9.992;2023-02-04T01:15:13;4.50;99.90
22503;DHT22;11418;48.118;9.992;2023-02-04T01:19:14;4.60;99.90
22503;DHT22;11418;48.118;9.992;2023-02-04T01:23:14;4.70;99.90
22503;DHT22;11418;48.118;9.992;2023-02-04T01:27:15;4.70;99.90
22503;DHT22;11418;48.118;9.992;2023-02-04T01:31:16;4.60;99.90
22503;DHT22;11418;48.118;9.992;2023-02-04T01:35:16;4.60;99.90
22503;DHT22;11418;48.118;9.992;2023-02-04T01:39:17;4.60;99.90
22503;DHT22;11418;48.118;9.992;2023-02-04T01:43:18;4.60;99.90
22503;DHT22;11418;48.118;9.992;2023-02-04T01:47:22;4.60;99.90
22503;DHT22;11418;48.118;9.992;2023-02-04T01:51:26;4.70;99.90
22503;DHT22;11418;48.118;9.992;2023-02-04T01:55:30;4.60;99.90
22503;DHT22;11418;48.118;9.992;2023-02-04T01:59:32;4.60;99.90
22503;DHT22;11418;48.118;9.992;2023-02-04T02:03:33;4.60;99.90
22503;DHT22;11418;48.118;9.992;2023-02-04T02:07:33;4.60;99.90
22503;DHT22;11418;48.118;9.992;2023-02-04T02:11:34;4.50;99.90
22503;DHT22;11418;48.118;9.992;2023-02-04T02:15:35;4.60;99.90
22503;DHT22;11418;48.118;9.992;2023-02-04T02:19:37;4.60;99.90
22503;DHT22;11418;48.118;9.992;2023-02-04T02:23:54;4.50;99.90
22503;DHT22;11418;48.118;9.992;2023-02-04T02:27:57;4.60;99.90
22503;DHT22;11418;48.118;9.992;2023-02-04T02:31:58;4.50;99.90
22503;DHT22;11418;48.118;9.992;2023-02-04T02:35:59;4.50;99.90
22503;DHT22;11418;48.118;9.992;2023-02-04T02:40:00;4.50;99.90
22503;DHT22;11418;48.118;9.992;2023-02-04T02:44:01;4.70;99.90
22503;DHT22;11418;48.118;9.992;2023-02-04T02:48:02;4.60;99.90
22503;DHT22;11418;48.118;9.992;2023-02-04T02:52:03;4.60;99.90
22503;DHT22;11418;48.118;9.992;2023-02-04T02:56:04;4.60;99.90
22503;DHT22;11418;48.118;9.992;2023-02-04T03:00:19;4.60;99.90
22503;DHT22;11418;48.118;9.992;2023-02-04T03:04:21;4.70;99.90
22503;DHT22;11418;48.118;9.992;2023-02-04T03:08:21;4.70;99.90
22503;DHT22;11418;48.118;9.992;2023-02-04T03:12:22;4.70;99.90
22503;DHT22;11418;48.118;9.992;2023-02-04T03:16:23;4.70;99.90
22503;DHT22;11418;48.118;9.992;2023-02-04T03:20:24;4.70;99.90
22503;DHT22;11418;48.118;9.992;2023-02-04T03:24:26;4.70;99.90
22503;DHT22;11418;48.118;9.992;2023-02-04T03:28:26;4.80;99.90
22503;DHT22;11418;48.118;9.992;2023-02-04T03:32:27;4.70;99.90
22503;DHT22;11418;48.118;9.992;2023-02-04T03:36:27;4.70;99.90
22503;DHT22;11418;48.118;9.992;2023-02-04T03:40:28;4.80;99.90
22503;DHT22;11418;48.118;9.992;2023-02-04T03:44:29;4.80;99.90
22503;DHT22;11418;48.118;9.992;2023-02-04T03:48:29;4.90;99.90
22503;DHT22;11418;48.118;9.992;2023-02-04T03:52:30;4.90;99.90
22503;DHT22;11418;48.118;9.992;2023-02-04T03:56:30;4.80;99.90
22503;DHT22;11418;48.118;9.992;2023-02-04T04:00:31;4.70;99.90
22503;DHT22;11418;48.118;9.992;2023-02-04T04:04:32;4.60;99.90
22503;DHT22;11418;48.118;9.992;2023-02-04T04:08:32;4.60;99.90
22503;DHT22;11418;48.118;9.992;2023-02-04T04:12:33;4.50;99.90
22503;DHT22;11418;48.118;9.992;2023-02-04T04:16:34;4.40;99.90
22503;DHT22;11418;48.118;9.992;2023-02-04T04:20:34;4.40;99.90
22503;DHT22;11418;48.118;9.992;2023-02-04T04:24:35;4.50;99.90
22503;DHT22;11418;48.118;9.992;2023-02-04T04:28:35;4.50;99.90
22503;DHT22;11418;48.118;9.992;2023-02-04T04:32:36;4.50;99.90
22503;DHT22;11418;48.118;9.992;2023-02-04T04:36:36;4.40;99.90
22503;DHT22;11418;48.118;9.992;2023-02-04T04:40:37;4.50;99.90
22503;DHT22;11418;48.118;9.992;2023-02-04T04:44:37;4.30;99.90
22503;DHT22;11418;48.118;9.992;2023-02-04T04:48:38;4.20;99.90
22503;DHT22;11418;48.118;9.992;2023-02-04T04:52:39;4.40;99.90
22503;DHT22;11418;48.118;9.992;2023-02-04T04:56:39;4.40;99.90
22503;DHT22;11418;48.118;9.992;2023-02-04T05:00:40;4.60;99.90
22503;DHT22;11418;48.118;9.992;2023-02-04T05:04:41;4.60;99.90
22503;DHT22;11418;48.118;9.992;2023-02-04T05:08:41;4.70;99.90
22503;DHT22;11418;48.118;9.992;2023-02-04T05:12:42;4.50;99.90
22503;DHT22;11418;48.118;9.992;2023-02-04T05:16:42;4.50;99.90
22503;DHT22;11418;48.118;9.992;2023-02-04T05:20:43;4.30;99.90
22503;DHT22;11418;48.118;9.992;2023-02-04T05:24:43;4.10;99.90
22503;DHT22;11418;48.118;9.992;2023-02-04T05:28:44;3.90;99.90
22503;DHT22;11418;48.118;9.992;2023-02-04T05:32:44;3.90;99.90
22503;DHT22;11418;48.118;9.992;2023-02-04T05:36:45;3.90;99.90
22503;DHT22;11418;48.118;9.992;2023-02-04T05:40:45;3.90;99.90
22503;DHT22;11418;48.118;9.992;2023-02-04T05:44:46;3.80;99.90
22503;DHT22;11418;48.118;9.992;2023-02-04T05:48:46;3.80;99.90
22503;DHT22;11418;48.118;9.992;2023-02-04T05:52:47;3.80;99.90
22503;DHT22;11418;48.118;9.992;2023-02-04T05:56:50;3.80;99.90
22503;DHT22;11418;48.118;9.992;2023-02-04T06:00:51;3.90;99.90
22503;DHT22;11418;48.118;9.992;2023-02-04T06:04:54;3.90;99.90
22503;DHT22;11418;48.118;9.992;2023-02-04T06:08:57;3.80;99.90
22503;DHT22;11418;48.118;9.992;2023-02-04T06:12:58;3.60;99.90
22503;DHT22;11418;48.118;9.992;2023-02-04T06:16:59;3.50;99.90
22503;DHT22;11418;48.118;9.992;2023-02-04T06:20:59;3.70;99.90
22503;DHT22;11418;48.118;9.992;2023-02-04T06:25:04;3.70;99.90
22503;DHT22;11418;48.118;9.992;2023-02-04T06:29:04;3.50;99.90
22503;DHT22;11418;48.118;9.992;2023-02-04T06:33:05;3.40;99.90
22503;DHT22;11418;48.118;9.992;2023-02-04T06:37:05;3.30;99.90
22503;DHT22;11418;48.118;9.992;2023-02-04T06:41:06;3.50;99.90
22503;DHT22;11418;48.118;9.992;2023-02-04T06:45:06;3.80;99.90
22503;DHT22;11418;48.118;9.992;2023-02-04T06:49:07;4.10;99.90
22503;DHT22;11418;48.118;9.992;2023-02-04T06:53:08;4.10;99.90
22503;DHT22;11418;48.118;9.992;2023-02-04T06:57:08;4.10;99.90
22503;DHT22;11418;48.118;9.992;2023-02-04T07:01:09;4.30;99.90
22503;DHT22;11418;48.118;9.992;2023-02-04T07:05:09;4.00;99.90
22503;DHT22;11418;48.118;9.992;2023-02-04T07:09:10;3.70;99.90
22503;DHT22;11418;48.118;9.992;2023-02-04T07:13:10;3.60;99.90
22503;DHT22;11418;48.118;9.992;2023-02-04T07:17:11;3.50;99.90
22503;DHT22;11418;48.118;9.992;2023-02-04T07:21:11;3.50;99.90
22503;DHT22;11418;48.118;9.992;2023-02-04T07:25:12;3.60;99.90
22503;DHT22;11418;48.118;9.992;2023-02-04T07:29:15;3.60;99.90
22503;DHT22;11418;48.118;9.992;2023-02-04T07:33:16;3.70;99.90
22503;DHT22;11418;48.118;9.992;2023-02-04T07:37:17;3.80;99.90
22503;DHT22;11418;48.118;9.992;2023-02-04T07:41:19;3.70;99.90
22503;DHT22;11418;48.118;9.992;2023-02-04T07:45:21;3.80;99.90
22503;DHT22;11418;48.118;9.992;2023-02-04T07:49:21;3.90;99.90
22503;DHT22;11418;48.118;9.992;2023-02-04T07:53:22;4.20;99.90
22503;DHT22;11418;48.118;9.992;2023-02-04T07:57:23;4.60;99.90
22503;DHT22;11418;48.118;9.992;2023-02-04T08:01:23;4.30;99.90
22503;DHT22;11418;48.118;9.992;2023-02-04T08:05:24;4.30;99.90
22503;DHT22;11418;48.118;9.992;2023-02-04T08:09:24;4.30;99.90
22503;DHT22;11418;48.118;9.992;2023-02-04T08:13:26;4.60;99.90
22503;DHT22;11418;48.118;9.992;2023-02-04T08:17:30;4.50;99.90
22503;DHT22;11418;48.118;9.992;2023-02-04T08:21:30;4.50;99.90
22503;DHT22;11418;48.118;9.992;2023-02-04T08:25:31;3.90;99.90
22503;DHT22;11418;48.118;9.992;2023-02-04T08:29:31;3.60;99.90
22503;DHT22;11418;48.118;9.992;2023-02-04T08:33:32;3.50;99.90
22503;DHT22;11418;48.118;9.992;2023-02-04T08:37:33;3.50;99.90
22503;DHT22;11418;48.118;9.992;2023-02-04T08:41:33;3.60;99.90
22503;DHT22;11418;48.118;9.992;2023-02-04T08:45:34;3.70;99.90
22503;DHT22;11418;48.118;9.992;2023-02-04T08:49:35;3.90;99.90
22503;DHT22;11418;48.118;9.992;2023-02-04T08:53:36;4.00;99.90
22503;DHT22;11418;48.118;9.992;2023-02-04T08:57:38;4.30;99.90
22503;DHT22;11418;48.118;9.992;2023-02-04T09:01:38;4.30;99.90
22503;DHT22;11418;48.118;9.992;2023-02-04T09:05:39;4.30;99.90
22503;DHT22;11418;48.118;9.992;2023-02-04T09:09:39;4.40;99.90
22503;DHT22;11418;48.118;9.992;2023-02-04T09:13:40;4.50;99.90
22503;DHT22;11418;48.118;9.992;2023-02-04T09:17:40;4.40;99.90
22503;DHT22;11418;48.118;9.992;2023-02-04T09:21:43;4.50;99.90
22503;DHT22;11418;48.118;9.992;2023-02-04T09:25:44;4.50;99.90
22503;DHT22;11418;48.118;9.992;2023-02-04T09:29:45;4.60;99.90
22503;DHT22;11418;48.118;9.992;2023-02-04T09:33:45;4.80;99.90
22503;DHT22;11418;48.118;9.992;2023-02-04T09:37:46;4.80;99.90
22503;DHT22;11418;48.118;9.992;2023-02-04T09:41:46;4.90;99.90
22503;DHT22;11418;48.118;9.992;2023-02-04T09:45:47;5.20;99.90
22503;DHT22;11418;48.118;9.992;2023-02-04T09:49:48;5.60;99.90
22503;DHT22;11418;48.118;9.992;2023-02-04T09:53:51;5.70;99.90
22503;DHT22;11418;48.118;9.992;2023-02-04T09:57:54;6.00;99.90
22503;DHT22;11418;48.118;9.992;2023-02-04T10:02:13;6.60;99.90
22503;DHT22;11418;48.118;9.992;2023-02-04T10:06:20;6.70;99.90
22503;DHT22;11418;48.118;9.992;2023-02-04T10:10:24;6.90;99.90
22503;DHT22;11418;48.118;9.992;2023-02-04T10:14:26;7.10;99.90
22503;DHT22;11418;48.118;9.992;2023-02-04T10:18:30;7.20;99.90
22503;DHT22;11418;48.118;9.992;2023-02-04T10:22:32;6.90;99.90
22503;DHT22;11418;48.118;9.992;2023-02-04T10:26:33;6.50;99.90
22503;DHT22;11418;48.118;9.992;2023-02-04T10:30:39;6.30;99.90
22503;DHT22;11418;48.118;9.992;2023-02-04T10:34:40;6.90;99.90
22503;DHT22;11418;48.118;9.992;2023-02-04T10:38:43;6.80;99.90
22503;DHT22;11418;48.118;9.992;2023-02-04T10:42:47;6.80;99.90
22503;DHT22;11418;48.118;9.992;2023-02-04T10:46:49;6.80;99.90
22503;DHT22;11418;48.118;9.992;2023-02-04T10:50:57;6.60;99.90
22503;DHT22;11418;48.118;9.992;2023-02-04T10:54:58;6.70;99.90
22503;DHT22;11418;48.118;9.992;2023-02-04T10:59:00;7.00;99.90
22503;DHT22;11418;48.118;9.992;2023-02-04T11:03:11;7.20;99.90
22503;DHT22;11418;48.118;9.992;2023-02-04T11:07:14;7.10;99.90
22503;DHT22;11418;48.118;9.992;2023-02-04T11:11:19;6.90;99.90
22503;DHT22;11418;48.118;9.992;2023-02-04T11:15:39;6.90;99.90
22503;DHT22;11418;48.118;9.992;2023-02-04T11:19:40;6.60;99.90
22503;DHT22;11418;48.118;9.992;2023-02-04T11:23:42;6.70;99.90
22503;DHT22;11418;48.118;9.992;2023-02-04T11:27:43;6.60;99.90
22503;DHT22;11418;48.118;9.992;2023-02-04T11:36:01;6.90;99.90
22503;DHT22;11418;48.118;9.992;2023-02-04T11:40:31;7.00;99.90
22503;DHT22;11418;48.118;9.992;2023-02-04T11:44:32;7.40;99.90
22503;DHT22;11418;48.118;9.992;2023-02-04T11:48:35;7.60;99.90
22503;DHT22;11418;48.118;9.992;2023-02-04T11:52:36;7.50;99.90
22503;DHT22;11418;48.118;9.992;2023-02-04T11:56:36;7.40;99.90
22503;DHT22;11418;48.118;9.992;2023-02-04T12:00:37;7.70;99.90
22503;DHT22;11418;48.118;9.992;2023-02-04T12:04:37;7.70;99.90
22503;DHT22;11418;48.118;9.992;2023-02-04T12:08:38;7.70;99.90
22503;DHT22;11418;48.118;9.992;2023-02-04T12:12:50;7.30;99.90
22503;DHT22;11418;48.118;9.992;2023-02-04T12:16:51;7.80;99.90
22503;DHT22;11418;48.118;9.992;2023-02-04T12:20:52;8.30;99.90
22503;DHT22;11418;48.118;9.992;2023-02-04T12:24:53;8.20;99.90
22503;DHT22;11418;48.118;9.992;2023-02-04T12:28:53;8.20;99.90
22503;DHT22;11418;48.118;9.992;2023-02-04T12:32:54;8.20;99.90
22503;DHT22;11418;48.118;9.992;2023-02-04T12:36:54;8.20;99.90
22503;DHT22;11418;48.118;9.992;2023-02-04T12:40:55;8.10;99.90
22503;DHT22;11418;48.118;9.992;2023-02-04T12:44:55;8.10;99.90
22503;DHT22;11418;48.118;9.992;2023-02-04T12:48:56;8.10;99.90
22503;DHT22;11418;48.118;9.992;2023-02-04T12:52:58;7.30;99.90
22503;DHT22;11418;48.118;9.992;2023-02-04T12:56:58;6.80;99.90
22503;DHT22;11418;48.118;9.992;2023-02-04T13:00:59;6.70;99.90
22503;DHT22;11418;48.118;9.992;2023-02-04T13:04:59;6.50;99.90
22503;DHT22;11418;48.118;9.992;2023-02-04T13:09:00;6.40;99.90
22503;DHT22;11418;48.118;9.992;2023-02-04T13:13:01;6.60;99.90
22503;DHT22;11418;48.118;9.992;2023-02-04T13:17:02;6.90;99.90
22503;DHT22;11418;48.118;9.992;2023-02-04T13:21:02;6.90;99.90
22503;DHT22;11418;48.118;9.992;2023-02-04T13:25:03;6.50;99.90
22503;DHT22;11418;48.118;9.992;2023-02-04T13:29:04;6.20;99.90
22503;DHT22;11418;48.118;9.992;2023-02-04T13:33:05;6.00;99.90
22503;DHT22;11418;48.118;9.992;2023-02-04T13:37:06;5.80;99.90
22503;DHT22;11418;48.118;9.992;2023-02-04T13:41:06;6.10;99.90
22503;DHT22;11418;48.118;9.992;2023-02-04T13:45:08;6.30;99.90
22503;DHT22;11418;48.118;9.992;2023-02-04T13:49:11;6.50;99.90
22503;DHT22;11418;48.118;9.992;2023-02-04T13:53:12;6.80;99.90
22503;DHT22;11418;48.118;9.992;2023-02-04T13:57:12;7.20;99.90
22503;DHT22;11418;48.118;9.992;2023-02-04T14:01:13;7.30;99.90
22503;DHT22;11418;48.118;9.992;2023-02-04T14:05:14;7.40;99.90
22503;DHT22;11418;48.118;9.992;2023-02-04T14:09:15;7.60;99.90
22503;DHT22;11418;48.118;9.992;2023-02-04T14:13:15;7.80;99.90
22503;DHT22;11418;48.118;9.992;2023-02-04T14:17:16;7.80;99.90
22503;DHT22;11418;48.118;9.992;2023-02-04T14:21:16;7.40;99.90
22503;DHT22;11418;48.118;9.992;2023-02-04T14:25:17;7.20;99.90
22503;DHT22;11418;48.118;9.992;2023-02-04T14:29:17;6.60;99.90
22503;DHT22;11418;48.118;9.992;2023-02-04T14:33:18;6.30;99.90
22503;DHT22;11418;48.118;9.992;2023-02-04T14:37:19;6.20;99.90
22503;DHT22;11418;48.118;9.992;2023-02-04T14:41:20;6.10;99.90
22503;DHT22;11418;48.118;9.992;2023-02-04T14:45:20;6.00;99.90
22503;DHT22;11418;48.118;9.992;2023-02-04T14:49:21;5.80;99.90
22503;DHT22;11418;48.118;9.992;2023-02-04T14:53:21;5.90;99.90
22503;DHT22;11418;48.118;9.992;2023-02-04T14:57:22;6.20;99.90
22503;DHT22;11418;48.118;9.992;2023-02-04T15:01:23;6.30;99.90
22503;DHT22;11418;48.118;9.992;2023-02-04T15:05:23;6.20;99.90
22503;DHT22;11418;48.118;9.992;2023-02-04T15:09:24;6.30;99.90
22503;DHT22;11418;48.118;9.992;2023-02-04T15:13:25;6.00;99.90
22503;DHT22;11418;48.118;9.992;2023-02-04T15:17:27;5.50;99.90
22503;DHT22;11418;48.118;9.992;2023-02-04T15:21:27;5.30;99.90
22503;DHT22;11418;48.118;9.992;2023-02-04T15:25:28;5.20;99.90
22503;DHT22;11418;48.118;9.992;2023-02-04T15:29:29;5.70;99.90
22503;DHT22;11418;48.118;9.992;2023-02-04T15:33:30;5.80;99.90
22503;DHT22;11418;48.118;9.992;2023-02-04T15:37:31;5.60;99.90
22503;DHT22;11418;48.118;9.992;2023-02-04T15:41:31;5.80;99.90
22503;DHT22;11418;48.118;9.992;2023-02-04T15:45:32;6.00;99.90
22503;DHT22;11418;48.118;9.992;2023-02-04T15:49:32;6.00;99.90
22503;DHT22;11418;48.118;9.992;2023-02-04T15:53:34;5.50;99.90
22503;DHT22;11418;48.118;9.992;2023-02-04T15:57:34;5.30;99.90
22503;DHT22;11418;48.118;9.992;2023-02-04T16:01:36;5.20;99.90
22503;DHT22;11418;48.118;9.992;2023-02-04T16:05:36;5.40;99.90
22503;DHT22;11418;48.118;9.992;2023-02-04T16:09:37;5.10;99.90
22503;DHT22;11418;48.118;9.992;2023-02-04T16:13:37;4.90;99.90
22503;DHT22;11418;48.118;9.992;2023-02-04T16:17:38;4.50;99.90
22503;DHT22;11418;48.118;9.992;2023-02-04T16:21:39;4.40;99.90
22503;DHT22;11418;48.118;9.992;2023-02-04T16:25:39;4.10;99.90
22503;DHT22;11418;48.118;9.992;2023-02-04T16:29:40;3.70;99.90
22503;DHT22;11418;48.118;9.992;2023-02-04T16:33:40;3.30;99.90
22503;DHT22;11418;48.118;9.992;2023-02-04T16:37:42;3.20;99.90
22503;DHT22;11418;48.118;9.992;2023-02-04T16:41:42;3.10;99.90
22503;DHT22;11418;48.118;9.992;2023-02-04T16:45:43;3.00;99.90
22503;DHT22;11418;48.118;9.992;2023-02-04T16:49:43;2.90;99.90
22503;DHT22;11418;48.118;9.992;2023-02-04T16:53:45;2.80;99.90
22503;DHT22;11418;48.118;9.992;2023-02-04T16:57:45;2.60;99.90
22503;DHT22;11418;48.118;9.992;2023-02-04T17:01:46;2.50;99.90
22503;DHT22;11418;48.118;9.992;2023-02-04T17:05:47;2.50;99.90
22503;DHT22;11418;48.118;9.992;2023-02-04T17:09:47;2.50;99.90
22503;DHT22;11418;48.118;9.992;2023-02-04T17:13:48;2.30;99.90
22503;DHT22;11418;48.118;9.992;2023-02-04T17:17:48;2.30;99.90
22503;DHT22;11418;48.118;9.992;2023-02-04T17:21:49;2.20;99.90
22503;DHT22;11418;48.118;9.992;2023-02-04T17:25:49;2.00;99.90
22503;DHT22;11418;48.118;9.992;2023-02-04T17:29:50;1.90;99.90
22503;DHT22;11418;48.118;9.992;2023-02-04T17:33:50;1.80;99.90
22503;DHT22;11418;48.118;9.992;2023-02-04T17:37:51;1.70;99.90
22503;DHT22;11418;48.118;9.992;2023-02-04T17:41:53;1.50;99.90
22503;DHT22;11418;48.118;9.992;2023-02-04T17:45:53;1.40;99.90
22503;DHT22;11418;48.118;9.992;2023-02-04T17:49:54;1.20;99.90
22503;DHT22;11418;48.118;9.992;2023-02-04T17:53:55;1.10;99.90
22503;DHT22;11418;48.118;9.992;2023-02-04T17:57:59;0.90;99.90
22503;DHT22;11418;48.118;9.992;2023-02-04T18:02:00;0.80;99.90
22503;DHT22;11418;48.118;9.992;2023-02-04T18:06:15;0.70;99.90
22503;DHT22;11418;48.118;9.992;2023-02-04T18:14:28;0.60;99.90
22503;DHT22;11418;48.118;9.992;2023-02-04T18:18:36;0.50;99.90
22503;DHT22;11418;48.118;9.992;2023-02-04T18:22:37;0.40;99.90
22503;DHT22;11418;48.118;9.992;2023-02-04T18:26:46;0.50;99.90
22503;DHT22;11418;48.118;9.992;2023-02-04T18:30:50;0.60;99.90
22503;DHT22;11418;48.118;9.992;2023-02-04T18:34:54;0.90;99.90
22503;DHT22;11418;48.118;9.992;2023-02-04T18:38:54;1.30;99.90
22503;DHT22;11418;48.118;9.992;2023-02-04T18:43:26;1.40;99.90
22503;DHT22;11418;48.118;9.992;2023-02-04T18:47:32;1.50;99.90
22503;DHT22;11418;48.118;9.992;2023-02-04T18:51:37;1.20;99.90
22503;DHT22;11418;48.118;9.992;2023-02-04T18:55:44;1.00;99.90
22503;DHT22;11418;48.118;9.992;2023-02-04T18:59:46;0.90;99.90
22503;DHT22;11418;48.118;9.992;2023-02-04T19:03:51;0.90;99.90
22503;DHT22;11418;48.118;9.992;2023-02-04T19:12:16;0.80;99.90
22503;DHT22;11418;48.118;9.992;2023-02-04T19:16:27;0.90;99.90
22503;DHT22;11418;48.118;9.992;2023-02-04T19:20:31;0.90;99.90
22503;DHT22;11418;48.118;9.992;2023-02-04T19:24:32;1.00;99.90
22503;DHT22;11418;48.118;9.992;2023-02-04T19:28:34;1.10;99.90
22503;DHT22;11418;48.118;9.992;2023-02-04T19:32:44;1.50;99.90
22503;DHT22;11418;48.118;9.992;2023-02-04T19:36:45;1.20;99.90
22503;DHT22;11418;48.118;9.992;2023-02-04T19:40:47;1.20;99.90
22503;DHT22;11418;48.118;9.992;2023-02-04T19:44:50;1.00;99.90
22503;DHT22;11418;48.118;9.992;2023-02-04T19:48:51;1.00;99.90
22503;DHT22;11418;48.118;9.992;2023-02-04T19:53:18;1.00;99.90
22503;DHT22;11418;48.118;9.992;2023-02-04T19:57:24;1.50;99.90
22503;DHT22;11418;48.118;9.992;2023-02-04T20:01:25;1.20;99.90
22503;DHT22;11418;48.118;9.992;2023-02-04T20:05:28;0.90;99.90
22503;DHT22;11418;48.118;9.992;2023-02-04T20:09:32;0.80;99.90
22503;DHT22;11418;48.118;9.992;2023-02-04T20:13:33;0.80;99.90
22503;DHT22;11418;48.118;9.992;2023-02-04T20:17:48;0.80;99.90
22503;DHT22;11418;48.118;9.992;2023-02-04T20:26:16;1.40;99.90
22503;DHT22;11418;48.118;9.992;2023-02-04T20:30:25;1.60;99.90
22503;DHT22;11418;48.118;9.992;2023-02-04T20:34:25;1.70;99.90
22503;DHT22;11418;48.118;9.992;2023-02-04T20:38:26;1.40;99.90
22503;DHT22;11418;48.118;9.992;2023-02-04T20:46:30;1.00;99.90
22503;DHT22;11418;48.118;9.992;2023-02-04T20:50:36;0.90;99.90
22503;DHT22;11418;48.118;9.992;2023-02-04T20:54:37;0.90;99.90
22503;DHT22;11418;48.118;9.992;2023-02-04T20:58:42;1.00;99.90
22503;DHT22;11418;48.118;9.992;2023-02-04T21:02:44;1.10;99.90
22503;DHT22;11418;48.118;9.992;2023-02-04T21:06:49;1.10;99.90
22503;DHT22;11418;48.118;9.992;2023-02-04T21:10:50;1.30;99.90
22503;DHT22;11418;48.118;9.992;2023-02-04T21:14:50;1.10;99.90
22503;DHT22;11418;48.118;9.992;2023-02-04T21:18:51;1.00;99.90
22503;DHT22;11418;48.118;9.992;2023-02-04T21:22:53;0.80;99.90
22503;DHT22;11418;48.118;9.992;2023-02-04T21:26:53;0.70;99.90
22503;DHT22;11418;48.118;9.992;2023-02-04T21:30:54;0.50;99.90
22503;DHT22;11418;48.118;9.992;2023-02-04T21:34:55;0.40;99.90
22503;DHT22;11418;48.118;9.992;2023-02-04T21:38:56;0.30;99.90
22503;DHT22;11418;48.118;9.992;2023-02-04T21:42:57;0.10;99.90
22503;DHT22;11418;48.118;9.992;2023-02-04T21:46:57;0.30;99.90
22503;DHT22;11418;48.118;9.992;2023-02-04T21:50:58;0.50;99.90
22503;DHT22;11418;48.118;9.992;2023-02-04T21:54:58;0.60;99.90
22503;DHT22;11418;48.118;9.992;2023-02-04T21:58:59;0.50;99.90
22503;DHT22;11418;48.118;9.992;2023-02-04T22:02:59;0.50;99.90
22503;DHT22;11418;48.118;9.992;2023-02-04T22:07:00;0.50;99.90
22503;DHT22;11418;48.118;9.992;2023-02-04T22:11:01;0.70;99.90
22503;DHT22;11418;48.118;9.992;2023-02-04T22:15:03;0.80;99.90
22503;DHT22;11418;48.118;9.992;2023-02-04T22:19:03;0.70;99.90
22503;DHT22;11418;48.118;9.992;2023-02-04T22:23:04;0.80;99.90
22503;DHT22;11418;48.118;9.992;2023-02-04T22:27:04;0.70;99.90
22503;DHT22;11418;48.118;9.992;2023-02-04T22:31:05;1.10;99.90
22503;DHT22;11418;48.118;9.992;2023-02-04T22:35:07;1.30;99.90
22503;DHT22;11418;48.118;9.992;2023-02-04T22:39:09;1.30;99.90
22503;DHT22;11418;48.118;9.992;2023-02-04T22:43:10;1.20;99.90
22503;DHT22;11418;48.118;9.992;2023-02-04T22:47:10;0.80;99.90
22503;DHT22;11418;48.118;9.992;2023-02-04T22:51:11;1.10;99.90
22503;DHT22;11418;48.118;9.992;2023-02-04T22:55:11;0.70;99.90
22503;DHT22;11418;48.118;9.992;2023-02-04T22:59:12;0.70;99.90
22503;DHT22;11418;48.118;9.992;2023-02-04T23:03:12;0.60;99.90
22503;DHT22;11418;48.118;9.992;2023-02-04T23:07:13;0.30;99.90
22503;DHT22;11418;48.118;9.992;2023-02-04T23:11:14;0.20;99.90
22503;DHT22;11418;48.118;9.992;2023-02-04T23:15:17;0.00;99.90
22503;DHT22;11418;48.118;9.992;2023-02-04T23:19:18;-0.20;99.90
22503;DHT22;11418;48.118;9.992;2023-02-04T23:23:18;-0.40;99.90
22503;DHT22;11418;48.118;9.992;2023-02-04T23:27:19;-0.30;99.90
22503;DHT22;11418;48.118;9.992;2023-02-04T23:31:19;-0.50;99.90
22503;DHT22;11418;48.118;9.992;2023-02-04T23:35:20;-0.30;99.90
22503;DHT22;11418;48.118;9.992;2023-02-04T23:39:21;-0.70;99.90
22503;DHT22;11418;48.118;9.992;2023-02-04T23:43:21;-1.00;99.90
22503;DHT22;11418;48.118;9.992;2023-02-04T23:47:22;-1.20;99.90
22503;DHT22;11418;48.118;9.992;2023-02-04T23:51:22;-1.20;99.90
22503;DHT22;11418;48.118;9.992;2023-02-04T23:55:23;-1.10;99.90
22503;DHT22;11418;48.118;9.992;2023-02-04T23:59:24;-0.70;99.90
